createdAt,value
2017-11-10T00:01:57.303Z,59.50
2017-11-10T00:04:25.564Z,59.40
2017-11-10T00:06:54.629Z,59.40
2017-11-10T00:09:22.891Z,59.40
2017-11-10T00:11:51.173Z,59.20
2017-11-10T00:14:19.468Z,59.30
2017-11-10T00:16:47.786Z,59.10
2017-11-10T00:19:16.074Z,59.30
2017-11-10T00:21:44.429Z,59.40
2017-11-10T00:24:12.706Z,59.40
2017-11-10T00:26:40.970Z,59.30
2017-11-10T00:29:10.031Z,59.40
2017-11-10T00:31:38.278Z,59.10
2017-11-10T00:34:06.544Z,59.40
2017-11-10T00:36:34.824Z,59.90
2017-11-10T00:39:03.992Z,59.30
2017-11-10T00:41:33.056Z,59.30
2017-11-10T00:44:01.313Z,59.20
2017-11-10T00:46:29.590Z,59.20
2017-11-10T00:48:57.861Z,59.50
2017-11-10T00:51:26.137Z,59.40
2017-11-10T00:53:54.415Z,59.30
2017-11-10T00:56:22.682Z,59.50
2017-11-10T00:58:50.972Z,59.20
2017-11-10T01:01:19.234Z,59.20
2017-11-10T01:03:47.507Z,59.40
2017-11-10T01:06:15.876Z,59.30
2017-11-10T01:08:44.166Z,59.00
2017-11-10T01:11:12.436Z,59.60
2017-11-10T01:13:40.737Z,59.20
2017-11-10T01:16:08.983Z,59.10
2017-11-10T01:18:37.268Z,59.10
2017-11-10T01:21:06.395Z,59.10
2017-11-10T01:23:34.665Z,59.30
2017-11-10T01:26:03.883Z,59.30
2017-11-10T01:28:32.314Z,59.30
2017-11-10T01:31:00.543Z,59.50
2017-11-10T01:33:30.806Z,59.50
2017-11-10T01:35:59.098Z,59.60
2017-11-10T01:38:28.411Z,59.40
2017-11-10T01:40:57.514Z,59.20
2017-11-10T01:43:25.962Z,59.40
2017-11-10T01:45:54.257Z,59.60
2017-11-10T01:51:18.169Z,59.00
2017-11-10T01:53:46.499Z,59.40
2017-11-10T01:56:14.731Z,59.60
2017-11-10T01:58:43.025Z,59.50
2017-11-10T02:01:11.325Z,59.30
2017-11-10T02:03:40.590Z,59.60
2017-11-10T02:06:08.931Z,59.50
2017-11-10T02:08:37.161Z,59.70
2017-11-10T02:11:06.170Z,59.60
2017-11-10T02:13:34.479Z,59.60
2017-11-10T02:16:02.735Z,59.50
2017-11-10T02:18:31.728Z,59.40
2017-11-10T02:21:00.024Z,60.20
2017-11-10T02:23:28.305Z,59.90
2017-11-10T02:25:56.590Z,59.60
2017-11-10T02:28:25.668Z,59.80
2017-11-10T02:30:53.930Z,59.80
2017-11-10T02:33:22.262Z,59.90
2017-11-10T02:35:51.305Z,60.10
2017-11-10T02:38:19.602Z,60.10
2017-11-10T02:40:47.995Z,60.00
2017-11-10T02:43:16.319Z,60.50
2017-11-10T02:45:44.604Z,60.30
2017-11-10T02:48:12.906Z,60.60
2017-11-10T02:50:41.171Z,60.90
2017-11-10T02:53:09.446Z,61.10
2017-11-10T02:55:37.723Z,60.70
2017-11-10T02:58:05.973Z,60.90
2017-11-10T03:00:34.307Z,61.00
2017-11-10T03:03:02.558Z,61.00
2017-11-10T03:05:30.834Z,61.10
2017-11-10T03:07:59.203Z,61.00
2017-11-10T03:10:27.505Z,61.10
2017-11-10T03:12:55.809Z,60.80
2017-11-10T03:15:24.907Z,61.10
2017-11-10T03:17:53.944Z,61.20
2017-11-10T03:20:22.226Z,61.20
2017-11-10T03:22:50.492Z,61.30
2017-11-10T03:25:18.773Z,61.00
2017-11-10T03:27:47.038Z,61.20
2017-11-10T03:30:15.297Z,60.80
2017-11-10T03:32:43.603Z,61.00
2017-11-10T03:35:11.909Z,61.00
2017-11-10T03:37:40.190Z,61.00
2017-11-10T03:40:08.453Z,61.00
2017-11-10T03:42:36.737Z,61.30
2017-11-10T03:45:05.021Z,61.10
2017-11-10T03:47:33.281Z,60.90
2017-11-10T03:50:01.537Z,61.10
2017-11-10T03:52:29.814Z,61.10
2017-11-10T03:54:58.059Z,61.20
2017-11-10T03:57:26.328Z,61.30
2017-11-10T03:59:55.371Z,61.50
2017-11-10T04:02:23.626Z,61.50
2017-11-10T04:04:51.935Z,61.70
2017-11-10T04:07:20.175Z,61.50
2017-11-10T04:09:48.446Z,61.50
2017-11-10T04:12:16.734Z,61.60
2017-11-10T04:14:45.019Z,61.70
2017-11-10T04:17:13.266Z,61.50
2017-11-10T04:19:42.354Z,61.30
2017-11-10T04:22:11.392Z,61.80
2017-11-10T04:24:40.495Z,61.50
2017-11-10T04:27:08.774Z,61.30
2017-11-10T04:29:37.031Z,61.60
2017-11-10T04:32:05.309Z,61.60
2017-11-10T04:34:33.612Z,61.70
2017-11-10T04:37:01.958Z,61.70
2017-11-10T04:39:30.208Z,61.90
2017-11-10T04:41:59.241Z,61.60
2017-11-10T04:44:27.528Z,62.00
2017-11-10T04:46:55.797Z,61.90
2017-11-10T04:49:24.176Z,61.80
2017-11-10T04:51:52.448Z,62.10
2017-11-10T04:54:20.708Z,61.80
2017-11-10T04:56:49.094Z,62.20
2017-11-10T04:59:17.371Z,62.00
2017-11-10T05:01:45.615Z,62.40
2017-11-10T05:04:14.678Z,62.10
2017-11-10T05:06:44.727Z,62.30
2017-11-10T05:09:13.016Z,62.30
2017-11-10T05:11:41.422Z,62.50
2017-11-10T05:14:09.921Z,62.60
2017-11-10T05:16:38.369Z,62.40
2017-11-10T05:19:06.787Z,62.40
2017-11-10T05:21:35.091Z,62.90
2017-11-10T05:24:04.138Z,62.70
2017-11-10T05:26:33.773Z,62.60
2017-11-10T05:29:03.669Z,62.80
2017-11-10T05:31:32.413Z,62.90
2017-11-10T05:34:00.682Z,62.90
2017-11-10T05:36:30.371Z,62.90
2017-11-10T05:38:58.691Z,62.90
2017-11-10T05:41:26.955Z,63.00
2017-11-10T05:43:56.296Z,63.10
2017-11-10T05:46:24.929Z,63.10
2017-11-10T05:48:53.958Z,63.10
2017-11-10T05:51:22.297Z,63.20
2017-11-10T05:53:51.616Z,63.10
2017-11-10T05:56:19.970Z,63.20
2017-11-10T05:58:48.359Z,63.30
2017-11-10T06:01:18.568Z,63.30
2017-11-10T06:03:46.957Z,63.30
2017-11-10T06:06:17.048Z,63.10
2017-11-10T06:08:45.405Z,63.30
2017-11-10T06:11:14.731Z,63.20
2017-11-10T06:13:43.890Z,63.50
2017-11-10T06:16:12.356Z,63.70
2017-11-10T06:18:41.550Z,63.40
2017-11-10T06:21:09.842Z,64.20
2017-11-10T06:23:38.164Z,63.60
2017-11-10T06:26:07.209Z,64.30
2017-11-10T06:28:35.550Z,63.10
2017-11-10T06:31:05.883Z,63.50
2017-11-10T06:33:34.141Z,63.40
2017-11-10T06:36:02.430Z,63.50
2017-11-10T06:38:31.463Z,63.40
2017-11-10T06:40:59.726Z,62.80
2017-11-10T06:43:28.019Z,63.10
2017-11-10T06:45:56.323Z,63.40
2017-11-10T06:48:24.648Z,63.50
2017-11-10T06:50:53.733Z,63.30
2017-11-10T06:53:23.727Z,63.40
2017-11-10T06:55:52.010Z,63.30
2017-11-10T06:58:25.582Z,63.30
2017-11-10T07:00:56.540Z,63.60
2017-11-10T07:03:24.847Z,63.40
2017-11-10T07:05:55.669Z,63.60
2017-11-10T07:08:26.203Z,62.90
2017-11-10T07:10:56.203Z,63.30
2017-11-10T07:13:25.576Z,63.20
2017-11-10T07:15:55.707Z,63.40
2017-11-10T07:18:23.983Z,63.60
2017-11-10T07:20:53.074Z,63.30
2017-11-10T07:23:21.932Z,63.20
2017-11-10T07:25:50.234Z,63.10
2017-11-10T07:28:18.514Z,63.30
2017-11-10T07:30:48.171Z,63.10
2017-11-10T07:33:18.115Z,63.30
2017-11-10T07:35:46.473Z,63.30
2017-11-10T07:38:15.821Z,63.30
2017-11-10T07:40:44.210Z,63.20
2017-11-10T07:43:13.367Z,63.30
2017-11-10T07:45:41.772Z,63.40
2017-11-10T07:48:10.115Z,63.30
2017-11-10T07:50:38.611Z,63.30
2017-11-10T07:53:08.113Z,62.80
2017-11-10T07:55:36.405Z,63.00
2017-11-10T07:58:05.866Z,63.30
2017-11-10T08:00:34.146Z,63.00
2017-11-10T08:03:03.178Z,63.00
2017-11-10T08:05:31.433Z,63.00
2017-11-10T08:07:59.724Z,63.10
2017-11-10T08:10:27.977Z,63.30
2017-11-10T08:12:56.290Z,63.10
2017-11-10T08:15:24.539Z,63.10
2017-11-10T08:17:52.808Z,63.30
2017-11-10T08:20:21.048Z,63.70
2017-11-10T08:22:49.355Z,63.80
2017-11-10T08:25:17.649Z,63.80
2017-11-10T08:27:45.907Z,63.20
2017-11-10T08:30:14.188Z,63.00
2017-11-10T08:32:42.430Z,63.50
2017-11-10T08:35:11.485Z,63.50
2017-11-10T08:37:39.739Z,63.30
2017-11-10T08:40:08.046Z,63.20
2017-11-10T08:42:36.367Z,63.40
2017-11-10T08:45:05.370Z,62.60
2017-11-10T08:47:33.628Z,62.60
2017-11-10T08:50:01.933Z,62.80
2017-11-10T08:52:30.262Z,63.40
2017-11-10T08:54:58.574Z,63.00
2017-11-10T08:57:27.602Z,63.30
2017-11-10T08:59:55.880Z,63.30
2017-11-10T09:02:24.239Z,63.20
2017-11-10T09:04:52.502Z,63.20
2017-11-10T09:07:20.903Z,63.30
2017-11-10T09:09:49.208Z,63.30
2017-11-10T09:12:17.474Z,63.20
2017-11-10T09:14:45.738Z,63.30
2017-11-10T09:17:14.042Z,62.90
2017-11-10T09:19:42.315Z,63.10
2017-11-10T09:22:10.615Z,63.30
2017-11-10T09:24:40.419Z,63.70
2017-11-10T09:30:19.442Z,63.50
2017-11-10T09:35:51.109Z,63.50
2017-11-10T09:38:21.334Z,63.70
2017-11-10T09:40:55.283Z,64.10
2017-11-10T09:43:30.075Z,63.90
2017-11-10T09:46:13.249Z,63.90
2017-11-10T09:48:48.184Z,63.90
2017-11-10T09:51:22.908Z,64.10
2017-11-10T09:57:12.511Z,64.00
2017-11-10T09:59:55.839Z,64.10
2017-11-10T10:02:30.562Z,64.40
2017-11-10T10:05:00.395Z,64.50
2017-11-10T10:07:34.360Z,64.20
2017-11-10T10:10:09.912Z,63.50
2017-11-10T10:15:48.705Z,63.50
2017-11-10T10:18:22.747Z,63.70
2017-11-10T10:20:56.762Z,63.90
2017-11-10T10:23:26.582Z,64.00
2017-11-10T10:25:54.871Z,63.90
2017-11-10T10:28:23.775Z,64.00
2017-11-10T10:30:52.874Z,64.00
2017-11-10T10:33:21.113Z,63.90
2017-11-10T10:35:50.244Z,64.00
2017-11-10T10:38:19.324Z,63.90
2017-11-10T10:40:47.619Z,63.70
2017-11-10T10:43:16.642Z,63.80
2017-11-10T10:45:45.393Z,63.70
2017-11-10T10:48:14.457Z,64.10
2017-11-10T10:50:42.734Z,63.70
2017-11-10T10:53:10.996Z,63.70
2017-11-10T10:55:39.297Z,63.50
2017-11-10T10:58:08.110Z,63.40
2017-11-10T11:00:36.339Z,63.00
2017-11-10T11:03:04.605Z,63.50
2017-11-10T11:05:33.129Z,62.80
2017-11-10T11:08:01.414Z,62.90
2017-11-10T11:10:29.688Z,62.60
2017-11-10T11:12:57.991Z,62.50
2017-11-10T11:15:27.072Z,62.70
2017-11-10T11:17:55.349Z,62.60
2017-11-10T11:20:23.624Z,62.60
2017-11-10T11:22:51.910Z,62.40
2017-11-10T11:25:21.138Z,61.90
2017-11-10T11:27:49.664Z,62.20
2017-11-10T11:30:17.955Z,62.20
2017-11-10T11:32:46.253Z,62.70
2017-11-10T11:35:15.521Z,62.80
2017-11-10T11:37:43.835Z,62.60
2017-11-10T11:40:12.101Z,62.50
2017-11-10T11:42:40.375Z,63.00
2017-11-10T11:45:10.079Z,62.60
2017-11-10T11:47:38.437Z,62.90
2017-11-10T11:50:07.479Z,63.40
2017-11-10T11:52:35.807Z,63.20
2017-11-10T11:55:04.105Z,63.70
2017-11-10T11:57:33.148Z,64.00
2017-11-10T12:00:01.422Z,64.20
2017-11-10T12:02:29.710Z,63.80
2017-11-10T12:04:58.145Z,64.00
2017-11-10T12:07:26.623Z,64.30
2017-11-10T12:09:54.926Z,63.70
2017-11-10T12:12:24.161Z,64.10
2017-11-10T12:14:53.083Z,63.00
2017-11-10T12:17:21.426Z,63.50
2017-11-10T12:19:50.021Z,63.60
2017-11-10T12:22:19.085Z,64.00
2017-11-10T12:24:47.472Z,64.50
2017-11-10T12:27:16.635Z,64.10
2017-11-10T12:29:44.947Z,64.50
2017-11-10T12:32:13.198Z,64.30
2017-11-10T12:34:41.483Z,64.10
2017-11-10T12:37:09.787Z,64.50
2017-11-10T12:39:38.058Z,64.80
2017-11-10T12:42:06.465Z,64.50
2017-11-10T12:44:35.494Z,64.50
2017-11-10T12:47:04.381Z,64.80
2017-11-10T12:49:32.663Z,64.70
2017-11-10T12:52:00.948Z,64.60
2017-11-10T12:54:29.237Z,64.70
2017-11-10T12:56:57.511Z,64.60
2017-11-10T12:59:26.574Z,64.60
2017-11-10T13:01:54.830Z,65.00
2017-11-10T13:04:23.878Z,64.50
2017-11-10T13:06:52.144Z,64.30
2017-11-10T13:09:20.396Z,64.10
2017-11-10T13:11:50.024Z,64.10
2017-11-10T13:14:18.303Z,64.60
2017-11-10T13:16:46.624Z,63.70
2017-11-10T13:19:14.910Z,63.80
2017-11-10T13:21:43.207Z,63.80
2017-11-10T13:24:12.896Z,63.40
2017-11-10T13:26:41.259Z,63.00
2017-11-10T13:29:10.541Z,63.70
2017-11-10T13:31:41.469Z,60.70
2017-11-10T13:34:11.992Z,60.70
2017-11-10T13:36:40.380Z,60.00
2017-11-10T13:39:08.719Z,59.30
2017-11-10T13:41:36.996Z,60.20
2017-11-10T13:44:05.295Z,60.80
2017-11-10T13:46:33.583Z,60.70
2017-11-10T13:49:03.320Z,60.80
2017-11-10T13:51:31.651Z,60.60
2017-11-10T13:53:59.912Z,60.80
2017-11-10T13:56:28.162Z,61.00
2017-11-10T13:58:56.443Z,61.00
2017-11-10T14:01:24.695Z,61.00
2017-11-10T14:03:52.976Z,61.20
2017-11-10T14:06:21.226Z,60.80
2017-11-10T14:08:49.486Z,60.70
2017-11-10T14:11:17.770Z,60.60
2017-11-10T14:13:46.021Z,61.10
2017-11-10T14:16:14.395Z,61.20
2017-11-10T14:18:43.415Z,61.50
2017-11-10T14:21:11.763Z,61.60
2017-11-10T14:23:40.072Z,62.10
2017-11-10T14:26:08.327Z,62.20
2017-11-10T14:28:36.616Z,62.20
2017-11-10T14:31:04.892Z,62.60
2017-11-10T14:33:33.154Z,62.30
2017-11-10T14:36:02.189Z,62.80
2017-11-10T14:38:30.442Z,62.70
2017-11-10T14:40:59.550Z,62.60
2017-11-10T14:43:27.814Z,62.60
2017-11-10T14:45:56.077Z,62.50
2017-11-10T14:48:24.358Z,62.50
2017-11-10T14:50:52.615Z,62.30
2017-11-10T14:53:20.896Z,62.30
2017-11-10T14:55:49.169Z,62.20
2017-11-10T14:58:17.426Z,62.40
2017-11-10T15:00:45.773Z,62.50
2017-11-10T15:03:14.014Z,62.10
2017-11-10T15:05:42.292Z,61.90
2017-11-10T15:08:10.557Z,61.60
2017-11-10T15:10:38.843Z,61.10
2017-11-10T15:13:07.094Z,61.40
2017-11-10T15:15:36.699Z,60.80
2017-11-10T15:18:05.723Z,61.50
2017-11-10T15:20:34.013Z,61.40
2017-11-10T15:23:02.262Z,61.50
2017-11-10T15:25:32.146Z,62.00
2017-11-10T15:28:00.395Z,62.10
2017-11-10T15:30:28.670Z,62.30
2017-11-10T15:32:56.960Z,62.20
2017-11-10T15:35:25.385Z,62.50
2017-11-10T15:37:53.674Z,63.20
2017-11-10T15:40:21.978Z,62.30
2017-11-10T15:42:50.254Z,61.80
2017-11-10T15:45:18.547Z,61.00
2017-11-10T15:47:46.894Z,59.90
2017-11-10T15:50:15.147Z,59.90
2017-11-10T15:52:43.440Z,59.40
2017-11-10T15:55:11.722Z,58.40
2017-11-10T15:57:39.996Z,58.20
2017-11-10T16:00:08.290Z,57.80
2017-11-10T16:02:36.608Z,57.80
2017-11-10T16:05:04.855Z,58.20
2017-11-10T16:07:33.125Z,59.30
2017-11-10T16:10:01.395Z,59.00
2017-11-10T16:12:29.720Z,59.50
2017-11-10T16:14:59.574Z,59.70
2017-11-10T16:17:27.859Z,59.70
2017-11-10T16:19:56.159Z,59.90
2017-11-10T16:22:24.402Z,59.60
2017-11-10T16:24:52.670Z,59.40
2017-11-10T16:27:20.969Z,59.20
2017-11-10T16:29:49.245Z,59.40
2017-11-10T16:32:17.510Z,59.10
2017-11-10T16:34:45.794Z,59.10
2017-11-10T16:37:14.995Z,59.10
2017-11-10T16:39:43.266Z,59.10
2017-11-10T16:42:11.590Z,59.00
2017-11-10T16:44:39.835Z,58.90
2017-11-10T16:47:08.084Z,58.60
2017-11-10T16:49:37.281Z,58.40
2017-11-10T16:52:05.577Z,58.60
2017-11-10T16:54:34.844Z,58.30
2017-11-10T16:57:03.108Z,58.30
2017-11-10T16:59:32.110Z,58.10
2017-11-10T17:02:00.414Z,58.30
2017-11-10T17:04:28.662Z,58.20
2017-11-10T17:06:56.968Z,58.10
2017-11-10T17:09:25.240Z,58.10
2017-11-10T17:11:53.495Z,58.20
2017-11-10T17:14:21.795Z,58.10
2017-11-10T17:16:50.116Z,58.20
2017-11-10T17:19:19.292Z,57.60
2017-11-10T17:21:47.616Z,57.70
2017-11-10T17:24:16.498Z,57.40
2017-11-10T17:26:44.955Z,57.30
2017-11-10T17:29:13.633Z,57.60
2017-11-10T17:31:42.900Z,57.30
2017-11-10T17:34:13.115Z,57.40
2017-11-10T17:36:42.394Z,57.50
2017-11-10T17:39:10.714Z,57.30
2017-11-10T17:41:38.977Z,57.30
2017-11-10T17:44:07.396Z,57.00
2017-11-10T17:46:35.691Z,57.40
2017-11-10T17:49:04.731Z,57.30
2017-11-10T17:51:33.026Z,57.20
2017-11-10T17:54:01.465Z,57.20
2017-11-10T17:56:30.483Z,57.00
2017-11-10T17:58:58.803Z,57.20
2017-11-10T18:01:28.579Z,56.90
2017-11-10T18:03:56.874Z,56.80
2017-11-10T18:06:25.143Z,56.80
2017-11-10T18:08:53.434Z,56.90
2017-11-10T18:11:21.769Z,56.60
2017-11-10T18:13:51.022Z,56.60
2017-11-10T18:16:20.379Z,56.70
2017-11-10T18:18:50.917Z,56.40
2017-11-10T18:21:20.967Z,56.30
2017-11-10T18:23:50.012Z,56.20
2017-11-10T18:26:23.511Z,56.00
2017-11-10T18:28:52.914Z,56.10
2017-11-10T18:31:21.216Z,55.90
2017-11-10T18:33:50.494Z,55.60
2017-11-10T18:36:18.823Z,55.70
2017-11-10T18:38:47.087Z,55.90
2017-11-10T18:41:16.990Z,55.60
2017-11-10T18:43:45.254Z,55.60
2017-11-10T18:46:13.505Z,55.30
2017-11-10T18:48:45.800Z,55.20
2017-11-10T18:51:20.654Z,55.10
2017-11-10T18:53:52.552Z,55.10
2017-11-10T18:59:01.162Z,55.10
2017-11-10T19:01:30.200Z,54.70
2017-11-10T19:03:58.528Z,54.70
2017-11-10T19:06:27.576Z,54.80
2017-11-10T19:08:57.878Z,54.90
2017-11-10T19:11:26.817Z,54.50
2017-11-10T19:14:16.973Z,54.60
2017-11-10T19:16:45.274Z,54.50
2017-11-10T19:19:13.630Z,54.40
2017-11-10T19:21:44.122Z,54.30
2017-11-10T19:24:12.414Z,54.20
2017-11-10T19:26:41.324Z,54.30
2017-11-10T19:29:10.307Z,54.30
2017-11-10T19:31:39.425Z,54.90
2017-11-10T19:34:08.631Z,54.20
2017-11-10T19:36:37.154Z,54.50
2017-11-10T19:39:05.433Z,54.10
2017-11-10T19:41:34.058Z,54.00
2017-11-10T19:44:02.323Z,53.90
2017-11-10T19:46:30.651Z,53.80
2017-11-10T19:48:58.999Z,54.00
2017-11-10T19:51:27.374Z,53.70
2017-11-10T19:53:55.707Z,53.60
2017-11-10T19:56:24.027Z,53.40
2017-11-10T19:58:52.376Z,53.50
2017-11-10T20:01:21.980Z,53.30
2017-11-10T20:03:52.614Z,53.60
2017-11-10T20:06:20.923Z,53.60
2017-11-10T20:08:49.239Z,53.60
2017-11-10T20:11:17.555Z,53.40
2017-11-10T20:13:45.824Z,53.60
2017-11-10T20:16:14.628Z,54.00
2017-11-10T20:18:42.887Z,53.60
2017-11-10T20:21:11.190Z,53.80
2017-11-10T20:23:39.439Z,53.70
2017-11-10T20:26:07.691Z,53.80
2017-11-10T20:28:35.993Z,53.80
2017-11-10T20:31:15.220Z,53.60
2017-11-10T20:33:50.087Z,53.90
2017-11-10T20:36:18.376Z,53.50
2017-11-10T20:38:46.650Z,54.70
2017-11-10T20:41:15.913Z,54.70
2017-11-10T20:43:44.205Z,54.90
2017-11-10T20:46:12.549Z,54.20
2017-11-10T20:48:42.499Z,53.70
2017-11-10T20:51:10.814Z,53.70
2017-11-10T20:53:39.862Z,53.60
2017-11-10T20:56:09.098Z,53.70
2017-11-10T20:58:37.558Z,53.70
2017-11-10T21:01:06.891Z,53.70
2017-11-10T21:03:36.849Z,53.60
2017-11-10T21:06:05.284Z,53.80
2017-11-10T21:08:33.665Z,53.70
2017-11-10T21:11:01.948Z,53.50
2017-11-10T21:13:30.206Z,53.30
2017-11-10T21:15:58.472Z,53.40
2017-11-10T21:18:26.778Z,53.40
2017-11-10T21:20:55.735Z,53.30
2017-11-10T21:23:24.076Z,53.10
2017-11-10T21:25:53.175Z,53.40
2017-11-10T21:28:22.339Z,53.60
2017-11-10T21:30:50.651Z,54.30
2017-11-10T21:33:18.946Z,53.40
2017-11-10T21:35:47.236Z,53.40
2017-11-10T21:38:15.498Z,53.30
2017-11-10T21:40:43.783Z,54.00
2017-11-10T21:43:12.049Z,53.10
2017-11-10T21:45:40.335Z,53.30
2017-11-10T21:48:08.569Z,54.10
2017-11-10T21:50:37.653Z,54.10
2017-11-10T21:53:06.034Z,53.10
2017-11-10T21:55:34.302Z,53.20
2017-11-10T21:58:02.598Z,54.20
2017-11-10T22:00:31.676Z,54.30
2017-11-10T22:03:01.779Z,53.50
2017-11-10T22:05:30.266Z,54.30
2017-11-10T22:07:59.183Z,53.50
2017-11-10T22:10:27.688Z,54.20
2017-11-10T22:12:55.973Z,53.50
2017-11-10T22:15:24.264Z,54.20
2017-11-10T22:17:52.531Z,54.40
2017-11-10T22:20:20.958Z,53.40
2017-11-10T22:22:49.232Z,54.10
2017-11-10T22:25:17.508Z,53.30
2017-11-10T22:27:45.988Z,54.00
2017-11-10T22:30:14.253Z,54.10
2017-11-10T22:32:43.382Z,53.40
2017-11-10T22:35:11.705Z,53.40
2017-11-10T22:37:40.319Z,53.40
2017-11-10T22:40:08.615Z,53.50
2017-11-10T22:42:36.969Z,54.30
2017-11-10T22:45:05.278Z,54.30
2017-11-10T22:47:33.701Z,54.30
2017-11-10T22:50:02.124Z,53.50
2017-11-10T22:52:31.426Z,53.60
2017-11-10T22:55:05.429Z,54.30
2017-11-10T22:57:34.701Z,54.20
2017-11-10T23:00:03.099Z,53.30
2017-11-10T23:02:31.461Z,54.00
2017-11-10T23:04:59.750Z,54.50
2017-11-10T23:07:28.453Z,54.40
2017-11-10T23:09:57.463Z,54.00
2017-11-10T23:12:25.887Z,55.10
2017-11-10T23:14:55.339Z,55.60
2017-11-10T23:17:24.647Z,55.90
2017-11-10T23:19:53.254Z,55.70
2017-11-10T23:22:21.537Z,55.80
2017-11-10T23:24:49.800Z,55.60
2017-11-10T23:27:18.224Z,56.20
2017-11-10T23:29:46.910Z,55.80
2017-11-10T23:32:15.161Z,55.60
2017-11-10T23:34:43.692Z,55.90
2017-11-10T23:37:13.570Z,56.10
2017-11-10T23:39:41.903Z,55.90
2017-11-10T23:42:10.951Z,56.10
2017-11-10T23:44:39.202Z,56.10
2017-11-10T23:47:07.583Z,56.20
2017-11-10T23:49:36.722Z,56.20
2017-11-10T23:52:04.981Z,56.40
2017-11-10T23:54:33.271Z,56.30
2017-11-10T23:57:01.511Z,56.20
2017-11-10T23:59:29.797Z,56.50
